• Join FlightAware (Why Join?)
  • Login
  • US Flag 
12:18PM EDT


 

Airport Tracker/Info


-or-


 

Live Flight TrackerFlight Track Log ✈ SWA2800 ✈ 05-Jul-2013 ✈ KHOU - KTPA

Flight Track Log - Related Links

Times and Time Zones

All times are in EDT time to prevent confusion due to time zone crossing. See the SWA2800 flight status page for this flight to view local times or setup timezone preferences in your user account.

Time Position Orientation Groundspeed Altitude Reporting Facility
EDT Latitude Longitude Course Direction KTS MPH feet Rate Location/Type
07:55AM 29.6289 -95.2633 150° Southeast 163 188 600  Level Houston Center
07:56AM 29.5953 -95.2411 150° Southeast 186 214 2,100 2,160 Climbing Houston Center
07:57AM 29.5492 -95.1961 140° Southeast 237 273 4,800 2,760 Climbing Houston Center
07:59AM 29.5889 -95.0822 68° East 273 314 9,100 2,700 Climbing Houston Center
08:00AM 29.6164 -94.9931 70° East 298 343 11,400 2,400 Climbing Houston Center
08:01AM 29.6192 -94.8922 88° East 337 388 14,000 2,460 Climbing Houston Center
08:02AM 29.5247 -94.8653 166° South 350 403 16,500 2,460 Climbing Houston Center
08:03AM 29.4253 -94.8392 167° South 364 419 19,100 2,400 Climbing Houston Center
08:04AM 29.3325 -94.7817 152° Southeast 377 434 21,400 1,980 Climbing Houston Center
08:05AM 29.2397 -94.7172 149° Southeast 387 445 23,200 1,860 Climbing Houston Center
08:06AM 29.1417 -94.6503 149° Southeast 404 465 25,300 1,980 Climbing Houston Center
08:07AM 29.0831 -94.5347 120° Southeast 432 497 27,300 1,620 Climbing Houston Center
08:08AM 29.0422 -94.4014 109° East 445 512 28,600 1,380 Climbing Houston Center
08:09AM 28.9997 -94.2650 110° East 456 525 30,200 1,500 Climbing Houston Center
08:10AM 28.9714 -94.1206 103° East 466 536 31,700 1,500 Climbing Houston Center
08:11AM 28.9711 -93.9719 90° East 471 542 33,300 1,620 Climbing Houston Center
08:12AM 28.9731 -93.8058 89° East 468 539 35,000 1,440 Climbing Houston Center
08:13AM 28.9722 -93.6581 90° East 468 539 36,300 960 Climbing Houston Center
08:14AM 28.9722 -93.5139 90° East 460 529 37,000 300 Climbing Houston Center
08:15AM 28.9711 -93.3653 90° East 467 537 37,000 -60 Level Houston Center
08:16AM 28.9708 -93.2164 90° East 471 542 36,900  Descending Houston Center
08:17AM 28.9708 -93.0686 90° East 471 542 37,000  Climbing Houston Center
08:18AM 28.9703 -92.9189 90° East 473 544 37,000  Level Houston Center
08:19AM 28.9689 -92.7422 90° East 469 540 37,000  Level Houston Center
08:20AM 28.9767 -92.5922 87° East 481 554 37,000  Level Houston Center
08:21AM 29.0406 -92.4589 61° Northeast 486 559 37,000  Level Houston Center
08:22AM 29.1072 -92.3261 60° Northeast 483 556 37,000  Level Houston Center
08:23AM 29.1728 -92.1925 61° Northeast 481 554 37,000  Level Houston Center
08:24AM 29.2406 -92.0586 60° Northeast 485 558 37,000  Level Houston Center
08:25AM 29.3081 -91.9258 60° Northeast 486 559 37,000  Level Houston Center
08:26AM 29.3761 -91.7911 60° Northeast 488 562 37,000  Level Houston Center
08:27AM 29.4608 -91.6344 58° Northeast 496 571 37,000  Level Houston Center
08:28AM 29.5331 -91.5003 58° Northeast 495 570 37,000  Level Houston Center
08:29AM 29.6036 -91.3661 59° Northeast 493 567 37,000  Level Houston Center
08:30AM 29.6747 -91.2322 59° Northeast 492 566 37,000  Level Houston Center
08:31AM 29.7475 -91.0972 58° Northeast 497 572 37,000  Level Houston Center
08:32AM 29.8183 -90.9600 59° Northeast 500 575 37,000  Level Houston Center
08:33AM 29.8817 -90.8192 63° Northeast 499 574 37,000  Level Houston Center
08:34AM 29.9392 -90.6767 65° Northeast 492 566 37,000  Level Houston Center
08:35AM 29.9894 -90.5297 68° East 493 567 37,000  Level Houston Center
08:36AM 30.0331 -90.3503 74° East 486 559 37,000  Level Houston Center
08:37AM 30.0225 -90.2039 95° East 463 533 37,000  Level Houston Center
08:39AM 29.9797 -90.0722 111° Southeast 444 511 37,000  Level Houston Center
08:40AM 29.9503 -89.9344 104° East 450 518 37,000  Level Houston Center
08:41AM 29.9686 -89.7847 82° East 472 543 37,000  Level Houston Center
08:42AM 30.0031 -89.6392 75° East 476 548 37,000 -60 Level Houston Center
08:43AM 30.0469 -89.4942 71° East 482 555 36,900  Descending Houston Center
08:44AM 30.1136 -89.3256 65° Northeast 487 560 37,000  Climbing Houston Center
08:45AM 30.1692 -89.1819 66° East 492 566 37,000  Level Houston Center
08:46AM 30.2242 -89.0400 66° East 487 560 37,000  Level Houston Center
08:47AM 30.2839 -88.8825 66° East 491 565 37,000  Level Houston Center
08:48AM 30.3386 -88.7392 66° East 489 563 37,000  Level Houston Center
08:49AM 30.4014 -88.6006 62° Northeast 489 563 37,000  Level Houston Center
08:50AM 30.4617 -88.4681 62° Northeast 471 542 37,000  Level Houston Center
08:51AM 30.5203 -88.3353 63° Northeast 468 539 37,000  Level Houston Center
08:52AM 30.5550 -88.1917 74° East 469 540 37,000  Level Houston Center
08:53AM 30.5933 -88.0500 73° East 466 536 37,000  Level Houston Center
08:54AM 30.6264 -87.9050 75° East 468 539 37,000  Level Houston Center
08:55AM 30.6303 -87.7322 88° East 456 525 37,000  Level Houston Center
08:56AM 30.5692 -87.6106 120° Southeast 440 506 37,000  Level Houston Center
08:57AM 30.5031 -87.4956 124° Southeast 431 496 37,000  Level Houston Center
08:58AM 30.4386 -87.3819 123° Southeast 423 487 37,000  Level Houston Center
08:59AM 30.3744 -87.2686 123° Southeast 421 484 37,000  Level Houston Center
09:00AM 30.3103 -87.1542 123° Southeast 424 488 37,000  Level Houston Center
09:01AM 30.2392 -87.0272 123° Southeast 428 493 37,000  Level Houston Center
09:02AM 30.1722 -86.9133 124° Southeast 431 496 37,000  Level Houston Center
09:03AM 30.1050 -86.7983 124° Southeast 433 498 37,000  Level Houston Center
09:04AM 30.0211 -86.6539 124° Southeast 433 498 37,000  Level Jacksonville Center
09:05AM 29.9556 -86.5386 123° Southeast 433 498 37,000  Level Jacksonville Center
09:06AM 29.8900 -86.4236 123° Southeast 433 498 37,000  Level Jacksonville Center
09:07AM 29.8219 -86.3111 125° Southeast 433 498 37,000  Level Jacksonville Center
09:08AM 29.7542 -86.1961 124° Southeast 433 498 37,000  Level Jacksonville Center
09:09AM 29.6881 -86.0817 124° Southeast 433 498 37,000  Level Jacksonville Center
09:10AM 29.6239 -85.9719 124° Southeast 428 493 37,000  Level Jacksonville Center
09:11AM 29.5617 -85.8697 125° Southeast 434 499 37,000  Level Jacksonville Center
09:12AM 29.4975 -85.7581 123° Southeast 428 493 37,000  Level Jacksonville Center
09:13AM 29.4289 -85.6442 125° Southeast 428 493 37,000  Level Jacksonville Center
09:14AM 29.3625 -85.5303 124° Southeast 433 498 37,000  Level Jacksonville Center
09:15AM 29.2958 -85.4142 123° Southeast 433 498 37,000  Level Jacksonville Center
09:16AM 29.2272 -85.3031 125° Southeast 433 498 37,000  Level Jacksonville Center
09:17AM 29.1583 -85.1919 125° Southeast 433 498 37,000  Level Jacksonville Center
09:18AM 29.0914 -85.0786 124° Southeast 433 498 37,000 -300 Level Jacksonville Center
09:20AM 28.9475 -84.8389 124° Southeast 438 504 36,100 -660 Descending Miami Center
09:21AM 28.8808 -84.7297 125° Southeast 439 505 35,100 -960 Descending Miami Center
09:22AM 28.8119 -84.6161 125° Southeast 434 499 34,200 -900 Descending Miami Center
09:23AM 28.7453 -84.5028 124° Southeast 434 499 33,300 -900 Descending Miami Center
09:24AM 28.6894 -84.4161 126° Southeast 434 499 32,500 -960 Descending Miami Center
09:25AM 28.6047 -84.2806 125° Southeast 434 499 31,400 -1,080 Descending Miami Center
09:26AM 28.5397 -84.1700 124° Southeast 434 499 30,400 -1,020 Descending Miami Center
09:27AM 28.4683 -84.0544 125° Southeast 440 506 29,400 -1,620 Descending Miami Center
09:28AM 28.4028 -83.9467 125° Southeast 440 506 27,200 -2,220 Descending Miami Center
09:29AM 28.3353 -83.8386 125° Southeast 429 494 25,000 -2,220 Descending Miami Center
09:30AM 28.2733 -83.7383 125° Southeast 415 478 22,800 -2,100 Descending Miami Center
09:31AM 28.2133 -83.6428 125° Southeast 393 452 20,900 -1,980 Descending Miami Center
09:32AM 28.1528 -83.5522 127° Southeast 377 434 18,900 -1,920 Descending Miami Center
09:33AM 28.0986 -83.4642 125° Southeast 360 414 17,100 -1,920 Descending Miami Center
09:34AM 28.0461 -83.3789 125° Southeast 339 390 15,100 -2,040 Descending Miami Center
09:35AM 27.9956 -83.2986 125° Southeast 334 384 13,100 -2,040 Descending Miami Center
09:36AM 27.9511 -83.2231 124° Southeast 328 377 11,100 -1,680 Descending Miami Center
09:37AM 27.9256 -83.1372 109° East 282 325 9,800 -1,500 Descending Miami Center
09:38AM 27.9525 -83.0447 72° East 277 319 8,200 -1,560 Descending Miami Center
09:39AM 27.9750 -82.9614 73° East 277 319 6,700 -1,080 Descending Miami Center
09:40AM 28.0000 -82.8667 73° East 274 315 6,000 -360 Descending Tampa TRACON
09:41AM 28.0333 -82.7833 66° East 261 300 6,000  Level Tampa TRACON
09:42AM 28.0667 -82.7333 53° Northeast 246 283 6,000 -300 Level Tampa TRACON
09:43AM 28.1167 -82.6667 50° Northeast 236 272 5,400 -540 Descending Tampa TRACON
09:44AM 28.1500 -82.6167 53° Northeast 234 269 5,000 -480 Descending Tampa TRACON
09:45AM 28.1833 -82.5500 60° Northeast 225 259 4,500 -780 Descending Tampa TRACON
09:46AM 28.1333 -82.5167 150° Southeast 211 243 3,500 -1,200 Descending Tampa TRACON
09:47AM 28.0833 -82.5333 196° South 191 220 2,200 -1,200 Descending Tampa TRACON
09:48AM 28.0333 -82.5333 180° South 152 175 1,100 -900 Descending Tampa TRACON
09:49AM 28.0000 -82.5333 180° South 136 157 400 -720 Descending Tampa TRACON
09:51AM 27.9755 -82.5332 41° Northeast  Level Estimated
09:58AM 27.9755 -82.5332 19° North  Level Estimated
09:59AM 27.9755 -82.5332 19° North  Level Estimated